sensor_id;sensor_type;location;lat;lon;timestamp;noise_LAeq;noise_LA_min;noise_LA_max;noise_LA01;noise_LA95
66458;Laerm;56835;52.198;4.826;2022-08-21T00:00:04;30.25;29.09;33.67;;
66458;Laerm;56835;52.198;4.826;2022-08-21T00:00:16;30.00;28.58;33.80;;
66458;Laerm;56835;52.198;4.826;2022-08-21T00:00:27;30.01;28.77;32.94;;
66458;Laerm;56835;52.198;4.826;2022-08-21T00:00:38;30.12;28.93;32.84;;
66458;Laerm;56835;52.198;4.826;2022-08-21T00:00:49;30.05;28.94;31.98;;
66458;Laerm;56835;52.198;4.826;2022-08-21T00:00:59;30.01;28.83;31.34;;
66458;Laerm;56835;52.198;4.826;2022-08-21T00:01:14;30.42;29.04;34.66;;
66458;Laerm;56835;52.198;4.826;2022-08-21T00:01:26;31.75;29.24;35.38;;
66458;Laerm;56835;52.198;4.826;2022-08-21T00:01:38;31.73;29.40;35.18;;
66458;Laerm;56835;52.198;4.826;2022-08-21T00:01:48;31.08;29.44;35.86;;
66458;Laerm;56835;52.198;4.826;2022-08-21T00:01:58;30.10;28.63;35.75;;
66458;Laerm;56835;52.198;4.826;2022-08-21T00:02:15;30.24;28.98;39.52;;
66458;Laerm;56835;52.198;4.826;2022-08-21T00:02:26;30.37;28.99;37.89;;
66458;Laerm;56835;52.198;4.826;2022-08-21T00:02:37;29.93;28.94;35.58;;
66458;Laerm;56835;52.198;4.826;2022-08-21T00:02:49;30.13;28.57;33.69;;
66458;Laerm;56835;52.198;4.826;2022-08-21T00:03:01;29.77;28.61;32.02;;
66458;Laerm;56835;52.198;4.826;2022-08-21T00:03:12;30.10;28.84;34.38;;
66458;Laerm;56835;52.198;4.826;2022-08-21T00:03:22;30.18;28.63;37.45;;
66458;Laerm;56835;52.198;4.826;2022-08-21T00:03:33;31.16;28.55;40.48;;
66458;Laerm;56835;52.198;4.826;2022-08-21T00:03:43;29.88;28.70;35.18;;
66458;Laerm;56835;52.198;4.826;2022-08-21T00:03:54;29.91;28.78;33.12;;
66458;Laerm;56835;52.198;4.826;2022-08-21T00:04:05;29.97;28.42;32.37;;
66458;Laerm;56835;52.198;4.826;2022-08-21T00:04:16;29.82;28.59;32.39;;
66458;Laerm;56835;52.198;4.826;2022-08-21T00:04:26;30.04;28.98;34.37;;
66458;Laerm;56835;52.198;4.826;2022-08-21T00:04:37;30.18;28.93;33.23;;
66458;Laerm;56835;52.198;4.826;2022-08-21T00:04:47;30.29;28.88;38.83;;
66458;Laerm;56835;52.198;4.826;2022-08-21T00:04:57;32.64;28.97;50.17;;
66458;Laerm;56835;52.198;4.826;2022-08-21T00:05:08;30.13;28.97;32.11;;
66458;Laerm;56835;52.198;4.826;2022-08-21T00:05:18;29.72;28.67;30.73;;
66458;Laerm;56835;52.198;4.826;2022-08-21T00:05:28;29.73;28.74;31.29;;
66458;Laerm;56835;52.198;4.826;2022-08-21T00:05:49;29.78;28.81;30.89;;
66458;Laerm;56835;52.198;4.826;2022-08-21T00:06:00;29.81;28.73;31.16;;
66458;Laerm;56835;52.198;4.826;2022-08-21T00:06:10;29.86;28.73;31.27;;
66458;Laerm;56835;52.198;4.826;2022-08-21T00:06:21;29.71;28.80;31.82;;
66458;Laerm;56835;52.198;4.826;2022-08-21T00:06:31;29.64;28.63;33.60;;
66458;Laerm;56835;52.198;4.826;2022-08-21T00:06:43;29.75;28.48;37.17;;
66458;Laerm;56835;52.198;4.826;2022-08-21T00:06:53;29.72;28.80;30.68;;
66458;Laerm;56835;52.198;4.826;2022-08-21T00:07:04;29.84;28.75;32.30;;
66458;Laerm;56835;52.198;4.826;2022-08-21T00:07:14;30.06;28.72;31.95;;
66458;Laerm;56835;52.198;4.826;2022-08-21T00:07:24;29.79;28.66;32.51;;
66458;Laerm;56835;52.198;4.826;2022-08-21T00:07:35;30.05;28.83;31.63;;
66458;Laerm;56835;52.198;4.826;2022-08-21T00:07:45;29.94;28.67;33.14;;
66458;Laerm;56835;52.198;4.826;2022-08-21T00:07:56;30.00;28.46;31.59;;
66458;Laerm;56835;52.198;4.826;2022-08-21T00:08:06;29.92;28.73;32.03;;
66458;Laerm;56835;52.198;4.826;2022-08-21T00:08:17;29.95;28.81;33.54;;
66458;Laerm;56835;52.198;4.826;2022-08-21T00:08:28;29.65;28.73;31.04;;
66458;Laerm;56835;52.198;4.826;2022-08-21T00:08:38;29.95;28.85;32.47;;
66458;Laerm;56835;52.198;4.826;2022-08-21T00:08:48;29.94;28.74;31.85;;
66458;Laerm;56835;52.198;4.826;2022-08-21T00:08:59;29.83;28.62;32.57;;
66458;Laerm;56835;52.198;4.826;2022-08-21T00:09:09;29.84;28.89;31.30;;
66458;Laerm;56835;52.198;4.826;2022-08-21T00:09:20;29.76;28.73;31.53;;
66458;Laerm;56835;52.198;4.826;2022-08-21T00:09:30;29.77;28.69;31.86;;
66458;Laerm;56835;52.198;4.826;2022-08-21T00:09:40;29.70;28.74;33.94;;
66458;Laerm;56835;52.198;4.826;2022-08-21T00:09:51;29.69;28.64;31.44;;
66458;Laerm;56835;52.198;4.826;2022-08-21T00:10:01;29.61;28.63;33.01;;
66458;Laerm;56835;52.198;4.826;2022-08-21T00:10:12;29.62;28.68;31.51;;
66458;Laerm;56835;52.198;4.826;2022-08-21T00:10:22;29.68;28.61;30.77;;
66458;Laerm;56835;52.198;4.826;2022-08-21T00:10:33;29.64;28.43;30.69;;
66458;Laerm;56835;52.198;4.826;2022-08-21T00:10:44;29.81;28.56;33.96;;
66458;Laerm;56835;52.198;4.826;2022-08-21T00:10:54;34.41;28.71;50.06;;
66458;Laerm;56835;52.198;4.826;2022-08-21T00:11:05;30.25;28.53;39.44;;
66458;Laerm;56835;52.198;4.826;2022-08-21T00:11:16;29.73;28.71;31.12;;
66458;Laerm;56835;52.198;4.826;2022-08-21T00:11:26;29.85;28.92;34.19;;
66458;Laerm;56835;52.198;4.826;2022-08-21T00:11:37;29.77;28.65;31.08;;
66458;Laerm;56835;52.198;4.826;2022-08-21T00:11:48;29.75;28.74;34.72;;
66458;Laerm;56835;52.198;4.826;2022-08-21T00:11:58;29.85;28.75;31.17;;
66458;Laerm;56835;52.198;4.826;2022-08-21T00:12:08;29.74;28.74;32.26;;
66458;Laerm;56835;52.198;4.826;2022-08-21T00:12:19;29.90;28.71;38.54;;
66458;Laerm;56835;52.198;4.826;2022-08-21T00:12:29;29.73;28.60;32.73;;
66458;Laerm;56835;52.198;4.826;2022-08-21T00:12:41;29.86;28.69;34.09;;
66458;Laerm;56835;52.198;4.826;2022-08-21T00:12:52;29.95;28.94;33.06;;
66458;Laerm;56835;52.198;4.826;2022-08-21T00:13:03;29.95;28.84;32.35;;
66458;Laerm;56835;52.198;4.826;2022-08-21T00:13:14;30.46;29.07;34.98;;
66458;Laerm;56835;52.198;4.826;2022-08-21T00:13:25;30.47;29.27;35.10;;
66458;Laerm;56835;52.198;4.826;2022-08-21T00:13:35;30.14;28.87;31.98;;
66458;Laerm;56835;52.198;4.826;2022-08-21T00:13:45;30.31;29.01;33.31;;
66458;Laerm;56835;52.198;4.826;2022-08-21T00:13:56;30.28;29.03;31.57;;
66458;Laerm;56835;52.198;4.826;2022-08-21T00:14:07;30.37;28.99;32.57;;
66458;Laerm;56835;52.198;4.826;2022-08-21T00:14:17;31.60;29.77;37.05;;
66458;Laerm;56835;52.198;4.826;2022-08-21T00:14:27;30.49;29.29;32.85;;
66458;Laerm;56835;52.198;4.826;2022-08-21T00:14:38;30.40;29.10;32.34;;
66458;Laerm;56835;52.198;4.826;2022-08-21T00:14:48;30.42;28.88;33.09;;
66458;Laerm;56835;52.198;4.826;2022-08-21T00:14:58;30.55;29.12;32.22;;
66458;Laerm;56835;52.198;4.826;2022-08-21T00:15:09;31.75;29.15;39.72;;
66458;Laerm;56835;52.198;4.826;2022-08-21T00:15:22;30.53;28.84;33.24;;
66458;Laerm;56835;52.198;4.826;2022-08-21T00:15:33;30.64;28.78;43.01;;
66458;Laerm;56835;52.198;4.826;2022-08-21T00:15:44;30.06;28.92;31.92;;
66458;Laerm;56835;52.198;4.826;2022-08-21T00:15:54;30.12;28.57;32.78;;
66458;Laerm;56835;52.198;4.826;2022-08-21T00:16:05;30.13;28.89;31.99;;
66458;Laerm;56835;52.198;4.826;2022-08-21T00:16:15;30.06;28.84;32.60;;
66458;Laerm;56835;52.198;4.826;2022-08-21T00:16:25;30.21;29.17;31.82;;
66458;Laerm;56835;52.198;4.826;2022-08-21T00:16:36;30.25;28.97;32.58;;
66458;Laerm;56835;52.198;4.826;2022-08-21T00:16:46;32.03;28.83;43.92;;
66458;Laerm;56835;52.198;4.826;2022-08-21T00:16:57;30.96;29.34;33.16;;
66458;Laerm;56835;52.198;4.826;2022-08-21T00:17:08;30.70;29.31;34.24;;
66458;Laerm;56835;52.198;4.826;2022-08-21T00:17:18;30.41;29.07;32.94;;
66458;Laerm;56835;52.198;4.826;2022-08-21T00:17:28;30.30;29.00;33.18;;
66458;Laerm;56835;52.198;4.826;2022-08-21T00:17:39;30.57;29.30;32.29;;
66458;Laerm;56835;52.198;4.826;2022-08-21T00:17:49;30.67;29.30;33.72;;
66458;Laerm;56835;52.198;4.826;2022-08-21T00:17:59;30.91;29.37;37.10;;
66458;Laerm;56835;52.198;4.826;2022-08-21T00:18:10;31.11;29.69;34.09;;
66458;Laerm;56835;52.198;4.826;2022-08-21T00:18:20;31.11;29.90;35.88;;
66458;Laerm;56835;52.198;4.826;2022-08-21T00:18:31;30.79;29.66;32.62;;
66458;Laerm;56835;52.198;4.826;2022-08-21T00:18:41;30.99;29.38;42.63;;
66458;Laerm;56835;52.198;4.826;2022-08-21T00:18:51;30.90;29.61;32.84;;
66458;Laerm;56835;52.198;4.826;2022-08-21T00:19:02;30.30;29.16;32.43;;
66458;Laerm;56835;52.198;4.826;2022-08-21T00:19:12;30.44;29.26;32.25;;
66458;Laerm;56835;52.198;4.826;2022-08-21T00:19:22;31.15;29.34;36.96;;
66458;Laerm;56835;52.198;4.826;2022-08-21T00:19:34;30.51;29.25;32.46;;
66458;Laerm;56835;52.198;4.826;2022-08-21T00:19:45;30.64;29.38;33.71;;
66458;Laerm;56835;52.198;4.826;2022-08-21T00:19:55;30.51;29.08;35.56;;
66458;Laerm;56835;52.198;4.826;2022-08-21T00:20:06;30.25;29.02;32.48;;
66458;Laerm;56835;52.198;4.826;2022-08-21T00:20:18;31.17;29.13;48.61;;
66458;Laerm;56835;52.198;4.826;2022-08-21T00:20:29;30.05;28.92;38.81;;
66458;Laerm;56835;52.198;4.826;2022-08-21T00:20:40;29.80;28.49;31.02;;
66458;Laerm;56835;52.198;4.826;2022-08-21T00:20:51;29.97;28.82;31.87;;
66458;Laerm;56835;52.198;4.826;2022-08-21T00:21:01;29.89;29.01;30.98;;
66458;Laerm;56835;52.198;4.826;2022-08-21T00:21:12;30.18;28.92;36.30;;
66458;Laerm;56835;52.198;4.826;2022-08-21T00:21:23;29.64;28.50;30.80;;
66458;Laerm;56835;52.198;4.826;2022-08-21T00:21:33;30.00;28.95;33.44;;
66458;Laerm;56835;52.198;4.826;2022-08-21T00:21:44;30.07;28.96;31.72;;
66458;Laerm;56835;52.198;4.826;2022-08-21T00:21:54;30.27;28.78;38.27;;
66458;Laerm;56835;52.198;4.826;2022-08-21T00:22:05;30.38;29.32;32.39;;
66458;Laerm;56835;52.198;4.826;2022-08-21T00:22:15;30.38;29.04;31.94;;
66458;Laerm;56835;52.198;4.826;2022-08-21T00:22:25;30.31;29.39;31.96;;
66458;Laerm;56835;52.198;4.826;2022-08-21T00:22:36;30.42;29.21;32.14;;
66458;Laerm;56835;52.198;4.826;2022-08-21T00:22:46;30.63;29.17;32.92;;
66458;Laerm;56835;52.198;4.826;2022-08-21T00:22:57;31.29;29.59;39.55;;
66458;Laerm;56835;52.198;4.826;2022-08-21T00:23:07;31.31;29.79;33.25;;
66458;Laerm;56835;52.198;4.826;2022-08-21T00:23:18;31.51;29.65;33.64;;
66458;Laerm;56835;52.198;4.826;2022-08-21T00:23:28;31.09;29.74;32.55;;
66458;Laerm;56835;52.198;4.826;2022-08-21T00:23:39;30.79;29.37;32.48;;
66458;Laerm;56835;52.198;4.826;2022-08-21T00:23:49;30.46;29.29;32.02;;
66458;Laerm;56835;52.198;4.826;2022-08-21T00:24:00;30.39;29.17;31.78;;
66458;Laerm;56835;52.198;4.826;2022-08-21T00:24:11;30.47;29.37;33.39;;
66458;Laerm;56835;52.198;4.826;2022-08-21T00:24:21;30.15;28.96;31.48;;
66458;Laerm;56835;52.198;4.826;2022-08-21T00:24:32;30.54;28.90;32.86;;
66458;Laerm;56835;52.198;4.826;2022-08-21T00:24:42;30.96;29.25;44.72;;
66458;Laerm;56835;52.198;4.826;2022-08-21T00:24:52;30.57;29.02;43.39;;
66458;Laerm;56835;52.198;4.826;2022-08-21T00:25:04;30.05;29.07;31.63;;
66458;Laerm;56835;52.198;4.826;2022-08-21T00:25:14;29.91;28.81;31.10;;
66458;Laerm;56835;52.198;4.826;2022-08-21T00:25:25;29.90;28.67;32.37;;
66458;Laerm;56835;52.198;4.826;2022-08-21T00:25:35;29.89;28.85;32.24;;
66458;Laerm;56835;52.198;4.826;2022-08-21T00:25:46;29.85;28.97;31.29;;
66458;Laerm;56835;52.198;4.826;2022-08-21T00:25:56;29.90;28.88;31.24;;
66458;Laerm;56835;52.198;4.826;2022-08-21T00:26:06;30.06;29.10;31.11;;
66458;Laerm;56835;52.198;4.826;2022-08-21T00:26:17;30.58;29.29;31.75;;
66458;Laerm;56835;52.198;4.826;2022-08-21T00:26:27;32.00;30.21;35.09;;
66458;Laerm;56835;52.198;4.826;2022-08-21T00:26:38;30.99;29.42;35.57;;
66458;Laerm;56835;52.198;4.826;2022-08-21T00:26:49;30.28;29.42;32.41;;
66458;Laerm;56835;52.198;4.826;2022-08-21T00:26:59;30.09;29.01;31.85;;
66458;Laerm;56835;52.198;4.826;2022-08-21T00:27:09;29.93;28.93;31.29;;
66458;Laerm;56835;52.198;4.826;2022-08-21T00:27:19;29.97;28.83;30.82;;
66458;Laerm;56835;52.198;4.826;2022-08-21T00:27:29;30.51;28.95;42.51;;
66458;Laerm;56835;52.198;4.826;2022-08-21T00:27:40;30.09;28.76;32.64;;
66458;Laerm;56835;52.198;4.826;2022-08-21T00:27:55;29.91;28.94;31.29;;
66458;Laerm;56835;52.198;4.826;2022-08-21T00:28:06;29.79;28.79;32.50;;
66458;Laerm;56835;52.198;4.826;2022-08-21T00:28:16;30.17;28.95;41.75;;
66458;Laerm;56835;52.198;4.826;2022-08-21T00:28:26;30.57;28.89;32.45;;
66458;Laerm;56835;52.198;4.826;2022-08-21T00:28:37;30.62;29.02;33.29;;
66458;Laerm;56835;52.198;4.826;2022-08-21T00:28:47;30.15;29.06;31.91;;
66458;Laerm;56835;52.198;4.826;2022-08-21T00:28:58;30.75;29.17;44.67;;
66458;Laerm;56835;52.198;4.826;2022-08-21T00:29:09;29.90;28.95;31.85;;
66458;Laerm;56835;52.198;4.826;2022-08-21T00:29:19;30.07;28.88;39.16;;
66458;Laerm;56835;52.198;4.826;2022-08-21T00:29:29;29.83;28.82;31.01;;
66458;Laerm;56835;52.198;4.826;2022-08-21T00:29:39;29.97;28.83;32.44;;
66458;Laerm;56835;52.198;4.826;2022-08-21T00:29:50;30.21;28.99;31.99;;
66458;Laerm;56835;52.198;4.826;2022-08-21T00:30:00;29.96;28.93;31.22;;
66458;Laerm;56835;52.198;4.826;2022-08-21T00:30:11;29.85;28.67;31.70;;
66458;Laerm;56835;52.198;4.826;2022-08-21T00:30:22;29.79;28.83;31.78;;
66458;Laerm;56835;52.198;4.826;2022-08-21T00:30:33;30.09;28.84;40.85;;
66458;Laerm;56835;52.198;4.826;2022-08-21T00:30:44;31.72;28.58;49.45;;
66458;Laerm;56835;52.198;4.826;2022-08-21T00:30:54;30.47;28.72;45.67;;
66458;Laerm;56835;52.198;4.826;2022-08-21T00:31:06;29.65;28.73;30.48;;
66458;Laerm;56835;52.198;4.826;2022-08-21T00:31:16;29.77;28.86;30.75;;
66458;Laerm;56835;52.198;4.826;2022-08-21T00:31:27;29.87;28.81;32.45;;
66458;Laerm;56835;52.198;4.826;2022-08-21T00:31:38;29.91;28.70;32.13;;
66458;Laerm;56835;52.198;4.826;2022-08-21T00:31:48;29.83;28.56;31.11;;
66458;Laerm;56835;52.198;4.826;2022-08-21T00:31:58;30.08;28.94;33.87;;
66458;Laerm;56835;52.198;4.826;2022-08-21T00:32:09;29.78;28.85;30.67;;
66458;Laerm;56835;52.198;4.826;2022-08-21T00:32:20;34.08;28.76;56.20;;
66458;Laerm;56835;52.198;4.826;2022-08-21T00:32:31;29.71;28.55;30.78;;
66458;Laerm;56835;52.198;4.826;2022-08-21T00:32:41;29.81;28.89;32.58;;
66458;Laerm;56835;52.198;4.826;2022-08-21T00:32:52;31.71;28.86;46.95;;
66458;Laerm;56835;52.198;4.826;2022-08-21T00:33:03;30.83;28.72;48.61;;
66458;Laerm;56835;52.198;4.826;2022-08-21T00:33:14;29.73;28.81;31.94;;
66458;Laerm;56835;52.198;4.826;2022-08-21T00:33:25;29.80;28.79;30.84;;
66458;Laerm;56835;52.198;4.826;2022-08-21T00:33:35;29.64;28.69;30.44;;
66458;Laerm;56835;52.198;4.826;2022-08-21T00:33:46;29.73;28.83;30.96;;
66458;Laerm;56835;52.198;4.826;2022-08-21T00:33:56;29.77;28.58;35.17;;
66458;Laerm;56835;52.198;4.826;2022-08-21T00:34:06;29.78;28.96;33.27;;
66458;Laerm;56835;52.198;4.826;2022-08-21T00:34:17;29.78;28.65;31.09;;
66458;Laerm;56835;52.198;4.826;2022-08-21T00:34:27;29.85;28.96;31.10;;
66458;Laerm;56835;52.198;4.826;2022-08-21T00:34:37;29.88;28.67;30.91;;
66458;Laerm;56835;52.198;4.826;2022-08-21T00:34:48;29.82;28.76;30.73;;
66458;Laerm;56835;52.198;4.826;2022-08-21T00:34:58;29.72;28.86;30.85;;
66458;Laerm;56835;52.198;4.826;2022-08-21T00:35:10;29.76;28.90;30.56;;
66458;Laerm;56835;52.198;4.826;2022-08-21T00:35:26;29.84;28.80;35.53;;
66458;Laerm;56835;52.198;4.826;2022-08-21T00:35:38;29.79;28.63;32.00;;
66458;Laerm;56835;52.198;4.826;2022-08-21T00:35:48;29.76;28.68;31.19;;
66458;Laerm;56835;52.198;4.826;2022-08-21T00:35:59;29.83;28.49;39.05;;
66458;Laerm;56835;52.198;4.826;2022-08-21T00:36:09;29.70;28.59;30.78;;
66458;Laerm;56835;52.198;4.826;2022-08-21T00:36:20;29.77;28.87;33.66;;
66458;Laerm;56835;52.198;4.826;2022-08-21T00:36:30;29.79;28.69;35.36;;
66458;Laerm;56835;52.198;4.826;2022-08-21T00:36:41;29.95;28.79;34.79;;
66458;Laerm;56835;52.198;4.826;2022-08-21T00:36:51;29.82;28.94;30.77;;
66458;Laerm;56835;52.198;4.826;2022-08-21T00:37:01;29.85;28.92;31.66;;
66458;Laerm;56835;52.198;4.826;2022-08-21T00:37:11;29.84;28.60;36.51;;
66458;Laerm;56835;52.198;4.826;2022-08-21T00:37:22;29.81;28.69;31.94;;
66458;Laerm;56835;52.198;4.826;2022-08-21T00:37:32;30.08;28.89;39.56;;
66458;Laerm;56835;52.198;4.826;2022-08-21T00:37:42;29.84;28.72;37.55;;
66458;Laerm;56835;52.198;4.826;2022-08-21T00:37:53;29.73;28.83;31.61;;
66458;Laerm;56835;52.198;4.826;2022-08-21T00:38:03;30.26;28.74;41.28;;
66458;Laerm;56835;52.198;4.826;2022-08-21T00:38:14;30.02;28.94;31.69;;
66458;Laerm;56835;52.198;4.826;2022-08-21T00:38:24;29.82;28.42;32.31;;
66458;Laerm;56835;52.198;4.826;2022-08-21T00:38:35;29.86;28.87;31.41;;
66458;Laerm;56835;52.198;4.826;2022-08-21T00:38:45;29.96;28.68;34.63;;
66458;Laerm;56835;52.198;4.826;2022-08-21T00:38:56;30.02;28.74;32.58;;
66458;Laerm;56835;52.198;4.826;2022-08-21T00:39:07;29.99;28.92;32.11;;
66458;Laerm;56835;52.198;4.826;2022-08-21T00:39:18;29.93;28.60;38.33;;
66458;Laerm;56835;52.198;4.826;2022-08-21T00:39:28;29.94;28.65;34.51;;
66458;Laerm;56835;52.198;4.826;2022-08-21T00:39:38;29.83;28.83;31.80;;
66458;Laerm;56835;52.198;4.826;2022-08-21T00:39:49;29.93;28.88;31.21;;
66458;Laerm;56835;52.198;4.826;2022-08-21T00:39:59;29.98;28.84;34.09;;
66458;Laerm;56835;52.198;4.826;2022-08-21T00:40:12;29.97;28.73;36.04;;
66458;Laerm;56835;52.198;4.826;2022-08-21T00:40:24;30.02;28.97;32.54;;
66458;Laerm;56835;52.198;4.826;2022-08-21T00:40:46;30.03;29.05;32.23;;
66458;Laerm;56835;52.198;4.826;2022-08-21T00:40:57;30.16;28.58;36.90;;
66458;Laerm;56835;52.198;4.826;2022-08-21T00:41:09;30.04;28.96;31.14;;
66458;Laerm;56835;52.198;4.826;2022-08-21T00:41:19;29.90;28.79;31.10;;
66458;Laerm;56835;52.198;4.826;2022-08-21T00:41:30;29.82;28.78;31.60;;
66458;Laerm;56835;52.198;4.826;2022-08-21T00:41:41;29.76;28.84;31.10;;
66458;Laerm;56835;52.198;4.826;2022-08-21T00:41:51;29.97;28.75;34.04;;
66458;Laerm;56835;52.198;4.826;2022-08-21T00:42:02;30.00;28.78;32.01;;
66458;Laerm;56835;52.198;4.826;2022-08-21T00:42:12;30.16;28.92;32.09;;
66458;Laerm;56835;52.198;4.826;2022-08-21T00:42:25;30.20;29.11;32.67;;
66458;Laerm;56835;52.198;4.826;2022-08-21T00:42:35;30.16;29.18;32.09;;
66458;Laerm;56835;52.198;4.826;2022-08-21T00:42:46;30.17;29.06;35.07;;
66458;Laerm;56835;52.198;4.826;2022-08-21T00:42:56;30.06;28.92;32.80;;
66458;Laerm;56835;52.198;4.826;2022-08-21T00:43:08;30.82;28.88;40.60;;
66458;Laerm;56835;52.198;4.826;2022-08-21T00:43:20;30.02;28.62;40.05;;
66458;Laerm;56835;52.198;4.826;2022-08-21T00:43:32;29.98;28.66;31.55;;
66458;Laerm;56835;52.198;4.826;2022-08-21T00:43:43;30.15;29.12;33.35;;
66458;Laerm;56835;52.198;4.826;2022-08-21T00:43:53;30.03;28.93;38.22;;
66458;Laerm;56835;52.198;4.826;2022-08-21T00:44:05;29.84;28.90;33.03;;
66458;Laerm;56835;52.198;4.826;2022-08-21T00:44:16;30.03;28.89;32.88;;
66458;Laerm;56835;52.198;4.826;2022-08-21T00:44:26;30.12;28.89;35.90;;
66458;Laerm;56835;52.198;4.826;2022-08-21T00:44:36;29.85;28.85;32.14;;
66458;Laerm;56835;52.198;4.826;2022-08-21T00:44:47;29.90;28.72;32.13;;
66458;Laerm;56835;52.198;4.826;2022-08-21T00:44:58;30.19;28.72;34.42;;
66458;Laerm;56835;52.198;4.826;2022-08-21T00:45:09;30.38;29.23;33.15;;
66458;Laerm;56835;52.198;4.826;2022-08-21T00:45:21;30.61;29.16;34.53;;
66458;Laerm;56835;52.198;4.826;2022-08-21T00:45:31;30.52;29.05;35.33;;
66458;Laerm;56835;52.198;4.826;2022-08-21T00:45:41;29.88;28.80;30.77;;
66458;Laerm;56835;52.198;4.826;2022-08-21T00:45:52;29.93;28.75;31.66;;
66458;Laerm;56835;52.198;4.826;2022-08-21T00:46:03;29.98;29.06;31.01;;
66458;Laerm;56835;52.198;4.826;2022-08-21T00:46:14;30.12;29.17;31.80;;
66458;Laerm;56835;52.198;4.826;2022-08-21T00:46:24;30.30;28.95;33.96;;
66458;Laerm;56835;52.198;4.826;2022-08-21T00:46:34;30.29;29.13;31.54;;
66458;Laerm;56835;52.198;4.826;2022-08-21T00:46:45;30.35;28.73;33.30;;
66458;Laerm;56835;52.198;4.826;2022-08-21T00:46:56;30.16;28.78;33.17;;
66458;Laerm;56835;52.198;4.826;2022-08-21T00:47:06;29.96;28.77;32.24;;
66458;Laerm;56835;52.198;4.826;2022-08-21T00:47:18;29.98;28.96;32.39;;
66458;Laerm;56835;52.198;4.826;2022-08-21T00:47:29;29.95;28.95;30.88;;
66458;Laerm;56835;52.198;4.826;2022-08-21T00:47:39;29.95;28.87;30.81;;
66458;Laerm;56835;52.198;4.826;2022-08-21T00:47:50;30.20;29.03;31.53;;
66458;Laerm;56835;52.198;4.826;2022-08-21T00:48:00;30.25;28.91;32.26;;
66458;Laerm;56835;52.198;4.826;2022-08-21T00:48:11;29.96;28.46;30.82;;
66458;Laerm;56835;52.198;4.826;2022-08-21T00:48:21;29.86;28.90;31.54;;
66458;Laerm;56835;52.198;4.826;2022-08-21T00:48:32;29.79;28.39;32.67;;
66458;Laerm;56835;52.198;4.826;2022-08-21T00:48:42;31.89;28.82;45.85;;
66458;Laerm;56835;52.198;4.826;2022-08-21T00:48:53;29.89;28.72;32.67;;
66458;Laerm;56835;52.198;4.826;2022-08-21T00:49:03;29.83;28.86;32.65;;
66458;Laerm;56835;52.198;4.826;2022-08-21T00:49:14;30.19;28.79;38.20;;
66458;Laerm;56835;52.198;4.826;2022-08-21T00:49:24;31.65;28.86;41.63;;
66458;Laerm;56835;52.198;4.826;2022-08-21T00:49:34;29.87;28.93;30.92;;
66458;Laerm;56835;52.198;4.826;2022-08-21T00:49:45;29.85;28.96;32.51;;
66458;Laerm;56835;52.198;4.826;2022-08-21T00:49:55;29.91;28.85;33.42;;
66458;Laerm;56835;52.198;4.826;2022-08-21T00:50:06;30.82;28.68;39.40;;
66458;Laerm;56835;52.198;4.826;2022-08-21T00:50:17;30.75;28.59;40.58;;
66458;Laerm;56835;52.198;4.826;2022-08-21T00:50:28;29.97;28.53;40.11;;
66458;Laerm;56835;52.198;4.826;2022-08-21T00:50:42;29.90;28.83;31.70;;
66458;Laerm;56835;52.198;4.826;2022-08-21T00:50:55;29.91;28.94;37.33;;
66458;Laerm;56835;52.198;4.826;2022-08-21T00:51:08;29.91;28.92;32.16;;
66458;Laerm;56835;52.198;4.826;2022-08-21T00:51:21;30.55;28.72;36.90;;
66458;Laerm;56835;52.198;4.826;2022-08-21T00:51:37;30.37;28.84;38.36;;
66458;Laerm;56835;52.198;4.826;2022-08-21T00:51:51;35.52;29.15;50.39;;
66458;Laerm;56835;52.198;4.826;2022-08-21T00:52:03;29.93;28.85;34.63;;
66458;Laerm;56835;52.198;4.826;2022-08-21T00:52:17;29.95;29.16;31.00;;
66458;Laerm;56835;52.198;4.826;2022-08-21T00:52:30;29.80;28.62;34.60;;
66458;Laerm;56835;52.198;4.826;2022-08-21T00:52:42;29.77;28.89;31.17;;
66458;Laerm;56835;52.198;4.826;2022-08-21T00:52:53;29.82;28.85;31.34;;
66458;Laerm;56835;52.198;4.826;2022-08-21T00:53:04;30.05;28.66;31.55;;
66458;Laerm;56835;52.198;4.826;2022-08-21T00:53:15;29.96;29.05;31.25;;
66458;Laerm;56835;52.198;4.826;2022-08-21T00:53:26;30.82;29.22;33.01;;
66458;Laerm;56835;52.198;4.826;2022-08-21T00:53:38;31.22;29.33;36.31;;
66458;Laerm;56835;52.198;4.826;2022-08-21T00:53:50;30.44;28.89;34.89;;
66458;Laerm;56835;52.198;4.826;2022-08-21T00:54:02;29.69;28.61;30.72;;
66458;Laerm;56835;52.198;4.826;2022-08-21T00:54:13;29.87;28.84;34.08;;
66458;Laerm;56835;52.198;4.826;2022-08-21T00:54:25;29.64;28.77;30.74;;
66458;Laerm;56835;52.198;4.826;2022-08-21T00:54:36;29.63;28.71;31.01;;
66458;Laerm;56835;52.198;4.826;2022-08-21T00:54:46;29.70;28.66;33.46;;
66458;Laerm;56835;52.198;4.826;2022-08-21T00:54:58;29.75;28.67;36.05;;
66458;Laerm;56835;52.198;4.826;2022-08-21T00:55:09;29.74;28.14;33.36;;
66458;Laerm;56835;52.198;4.826;2022-08-21T00:55:20;29.87;28.75;35.02;;
66458;Laerm;56835;52.198;4.826;2022-08-21T00:55:32;30.51;28.66;39.73;;
66458;Laerm;56835;52.198;4.826;2022-08-21T00:55:43;30.49;28.59;38.93;;
66458;Laerm;56835;52.198;4.826;2022-08-21T00:55:53;29.52;28.52;30.38;;
66458;Laerm;56835;52.198;4.826;2022-08-21T00:56:04;29.60;28.70;30.61;;
66458;Laerm;56835;52.198;4.826;2022-08-21T00:56:15;29.94;28.72;33.10;;
66458;Laerm;56835;52.198;4.826;2022-08-21T00:56:25;29.82;28.42;34.05;;
66458;Laerm;56835;52.198;4.826;2022-08-21T00:56:36;30.13;28.79;34.91;;
66458;Laerm;56835;52.198;4.826;2022-08-21T00:56:48;32.39;28.47;44.64;;
66458;Laerm;56835;52.198;4.826;2022-08-21T00:57:01;29.64;28.63;31.77;;
66458;Laerm;56835;52.198;4.826;2022-08-21T00:57:14;30.17;28.61;43.49;;
66458;Laerm;56835;52.198;4.826;2022-08-21T00:57:27;33.57;28.39;48.73;;
66458;Laerm;56835;52.198;4.826;2022-08-21T00:57:42;31.74;28.87;49.34;;
66458;Laerm;56835;52.198;4.826;2022-08-21T00:57:56;29.97;28.76;32.30;;
66458;Laerm;56835;52.198;4.826;2022-08-21T00:58:08;30.30;28.90;35.24;;
66458;Laerm;56835;52.198;4.826;2022-08-21T00:58:19;31.47;29.55;36.96;;
66458;Laerm;56835;52.198;4.826;2022-08-21T00:58:30;31.22;29.57;34.01;;
66458;Laerm;56835;52.198;4.826;2022-08-21T00:58:41;30.77;29.06;33.21;;
66458;Laerm;56835;52.198;4.826;2022-08-21T00:58:52;32.48;29.84;36.92;;
66458;Laerm;56835;52.198;4.826;2022-08-21T00:59:04;31.65;28.93;47.45;;
66458;Laerm;56835;52.198;4.826;2022-08-21T00:59:16;32.73;29.45;48.67;;
66458;Laerm;56835;52.198;4.826;2022-08-21T00:59:26;32.72;29.71;47.52;;
66458;Laerm;56835;52.198;4.826;2022-08-21T00:59:37;31.38;29.31;46.61;;
66458;Laerm;56835;52.198;4.826;2022-08-21T00:59:49;30.55;29.38;32.54;;
66458;Laerm;56835;52.198;4.826;2022-08-21T01:00:03;29.96;28.89;31.19;;
66458;Laerm;56835;52.198;4.826;2022-08-21T01:00:15;30.37;28.79;43.44;;
66458;Laerm;56835;52.198;4.826;2022-08-21T01:00:31;30.45;29.38;33.39;;
66458;Laerm;56835;52.198;4.826;2022-08-21T01:00:42;31.19;29.36;34.29;;
66458;Laerm;56835;52.198;4.826;2022-08-21T01:00:53;29.99;28.77;40.11;;
66458;Laerm;56835;52.198;4.826;2022-08-21T01:01:03;29.46;28.35;33.55;;
66458;Laerm;56835;52.198;4.826;2022-08-21T01:01:14;29.37;28.32;31.56;;
66458;Laerm;56835;52.198;4.826;2022-08-21T01:01:25;29.53;28.35;33.88;;